Time;durP1;ratioP1;P1;durP2;ratioP2;P2;SDS_P1;SDS_P2;PMS_P1;PMS_P2;Temp;Humidity;BMP_temperature;BMP_pressure;BME280_temperature;BME280_humidity;BME280_pressure;Samples;Min_cycle;Max_cycle;Signal;HPM_P1;HPM_P2
2023/01/20 00:01:48;;;;;;;7.18;2.72;;;1.30;99.90;;;;;;5045539;28;20103;-73
2023/01/20 00:04:14;;;;;;;6.95;3.03;;;1.30;99.90;;;;;;5045829;28;20076;-74
2023/01/20 00:06:40;;;;;;;12.60;2.83;;;1.30;99.90;;;;;;5049108;28;20511;-72
2023/01/20 00:09:05;;;;;;;7.30;2.90;;;1.30;99.90;;;;;;5043477;28;20068;-72
2023/01/20 00:11:32;;;;;;;9.10;2.58;;;1.30;99.90;;;;;;5047443;28;20025;-72
2023/01/20 00:14:01;;;;;;;11.88;2.97;;;1.30;99.90;;;;;;5046423;28;20017;-73
2023/01/20 00:16:28;;;;;;;11.20;2.97;;;1.20;99.90;;;;;;5044253;28;20025;-72
2023/01/20 00:18:53;;;;;;;11.15;3.92;;;1.20;99.90;;;;;;5044703;28;20036;-72
2023/01/20 00:21:19;;;;;;;11.98;3.10;;;1.20;99.90;;;;;;5046657;28;20086;-73
2023/01/20 00:23:46;;;;;;;9.05;2.78;;;1.20;99.90;;;;;;5045344;28;20475;-74
2023/01/20 00:26:17;;;;;;;10.65;3.15;;;1.20;99.90;;;;;;5045457;28;20036;-72
2023/01/20 00:28:43;;;;;;;11.65;3.70;;;1.20;99.90;;;;;;5042908;28;20029;-72
2023/01/20 00:31:10;;;;;;;8.35;3.63;;;1.20;99.90;;;;;;5051857;28;20037;-73
2023/01/20 00:33:36;;;;;;;7.35;3.40;;;1.20;99.90;;;;;;5048519;28;20117;-73
2023/01/20 00:36:02;;;;;;;9.50;3.28;;;1.20;99.90;;;;;;5047942;28;20108;-74
2023/01/20 00:38:27;;;;;;;9.93;3.58;;;1.20;99.90;;;;;;5046754;28;20059;-73
2023/01/20 00:40:54;;;;;;;11.65;3.25;;;1.20;99.90;;;;;;5045106;28;20094;-72
2023/01/20 00:43:20;;;;;;;15.93;4.03;;;1.20;99.90;;;;;;5045551;28;20629;-73
2023/01/20 00:45:45;;;;;;;10.57;3.88;;;1.20;99.90;;;;;;5045732;28;20028;-73
2023/01/20 00:48:11;;;;;;;10.52;4.00;;;1.20;99.90;;;;;;5045578;28;20035;-72
2023/01/20 00:50:37;;;;;;;9.70;4.32;;;1.20;99.90;;;;;;5045946;28;20037;-72
2023/01/20 00:53:02;;;;;;;12.60;4.85;;;1.10;99.90;;;;;;5045224;28;20025;-73
2023/01/20 00:55:28;;;;;;;14.65;4.97;;;1.10;99.90;;;;;;5077512;28;20032;-72
2023/01/20 00:57:54;;;;;;;19.05;5.65;;;1.10;99.90;;;;;;5042067;28;20039;-74
2023/01/20 01:00:21;;;;;;;10.60;5.88;;;1.10;99.90;;;;;;5043773;28;20036;-72
2023/01/20 01:02:47;;;;;;;14.80;6.10;;;1.10;99.90;;;;;;5078061;28;20028;-74
2023/01/20 01:05:13;;;;;;;13.57;5.68;;;1.10;99.90;;;;;;5046594;28;20094;-71
2023/01/20 01:07:39;;;;;;;15.50;6.53;;;1.10;99.90;;;;;;5045867;28;20090;-72
2023/01/20 01:10:05;;;;;;;16.85;6.95;;;1.00;99.90;;;;;;5045639;28;20124;-75
2023/01/20 01:12:31;;;;;;;15.00;6.72;;;1.10;99.90;;;;;;5060380;28;20103;-72
2023/01/20 01:14:56;;;;;;;16.95;8.00;;;1.00;99.90;;;;;;5045515;28;20475;-72
2023/01/20 01:17:22;;;;;;;19.48;8.13;;;1.00;99.90;;;;;;5044614;28;20028;-72
2023/01/20 01:19:51;;;;;;;19.90;8.43;;;1.00;99.90;;;;;;5043397;28;20102;-72
2023/01/20 01:22:16;;;;;;;18.80;8.35;;;1.00;99.90;;;;;;5046551;28;20029;-71
2023/01/20 01:24:43;;;;;;;22.73;9.65;;;1.00;99.90;;;;;;5044369;28;20877;-71
2023/01/20 01:27:09;;;;;;;22.17;9.80;;;1.00;99.90;;;;;;5042504;28;20412;-74
2023/01/20 01:29:35;;;;;;;24.50;9.27;;;1.00;99.90;;;;;;5047545;28;20040;-73
2023/01/20 01:32:01;;;;;;;25.45;10.52;;;1.00;99.90;;;;;;5043121;28;20459;-73
2023/01/20 01:34:26;;;;;;;23.75;10.52;;;1.00;99.90;;;;;;5080007;28;20031;-73
2023/01/20 01:36:52;;;;;;;23.48;10.35;;;1.00;99.90;;;;;;5047657;28;20505;-72
2023/01/20 01:39:18;;;;;;;24.42;11.68;;;1.00;99.90;;;;;;5046519;28;20040;-73
2023/01/20 01:41:45;;;;;;;27.77;12.30;;;1.00;99.90;;;;;;5045679;28;20025;-72
2023/01/20 01:44:13;;;;;;;25.58;12.05;;;1.00;99.90;;;;;;5048135;28;20040;-72
2023/01/20 01:46:40;;;;;;;24.73;11.68;;;1.00;99.90;;;;;;5046600;28;20060;-73
2023/01/20 01:49:23;;;;;;;27.58;12.23;;;1.00;99.90;;;;;;5045825;28;20041;-74
2023/01/20 01:51:59;;;;;;;25.05;12.25;;;1.00;99.90;;;;;;5046949;28;20029;-76
2023/01/20 01:54:31;;;;;;;29.30;12.52;;;1.00;99.90;;;;;;5048026;28;20489;-72
2023/01/20 01:56:58;;;;;;;30.45;14.70;;;1.00;99.90;;;;;;5044401;28;20446;-73
2023/01/20 01:59:24;;;;;;;31.25;14.27;;;1.00;99.90;;;;;;5047725;28;20029;-73
2023/01/20 02:01:52;;;;;;;27.95;14.70;;;1.00;99.90;;;;;;5045099;28;20037;-73
2023/01/20 02:04:23;;;;;;;31.33;15.32;;;0.90;99.90;;;;;;5049112;28;20037;-72
2023/01/20 02:06:57;;;;;;;33.88;15.40;;;0.90;99.90;;;;;;5042778;28;20037;-72
2023/01/20 02:09:24;;;;;;;31.33;14.65;;;0.90;99.90;;;;;;5045151;28;20020;-72
2023/01/20 02:11:53;;;;;;;30.50;16.33;;;1.00;99.90;;;;;;5047953;28;20032;-72
2023/01/20 02:14:35;;;;;;;35.65;16.95;;;0.90;99.90;;;;;;5052205;28;20492;-73
2023/01/20 02:17:24;;;;;;;38.03;18.40;;;0.90;99.90;;;;;;5047889;28;20033;-72
2023/01/20 02:20:18;;;;;;;36.55;16.63;;;0.90;99.90;;;;;;5047152;28;20028;-74
2023/01/20 02:22:49;;;;;;;35.08;16.83;;;1.00;99.90;;;;;;5046122;28;20740;-72
2023/01/20 02:25:21;;;;;;;35.53;16.77;;;0.90;99.90;;;;;;5047347;28;20484;-71
2023/01/20 02:28:07;;;;;;;34.10;18.42;;;0.90;99.90;;;;;;5045285;28;20112;-73
2023/01/20 02:30:52;;;;;;;43.45;17.75;;;0.90;99.90;;;;;;5046981;28;20505;-72
2023/01/20 02:33:34;;;;;;;36.92;18.17;;;0.90;99.90;;;;;;5046613;28;20398;-73
2023/01/20 02:36:10;;;;;;;35.25;18.38;;;0.90;99.90;;;;;;5044420;28;20079;-73
2023/01/20 02:38:56;;;;;;;38.90;20.13;;;0.90;99.90;;;;;;5043126;28;20116;-74
2023/01/20 02:41:37;;;;;;;43.67;19.48;;;0.90;99.90;;;;;;5046852;28;20037;-73
2023/01/20 02:44:29;;;;;;;38.78;20.38;;;0.90;99.90;;;;;;5047411;28;20037;-73
2023/01/20 02:47:01;;;;;;;37.25;19.40;;;0.90;99.90;;;;;;5044386;28;20033;-73
2023/01/20 02:49:44;;;;;;;44.60;21.50;;;0.90;99.90;;;;;;5063172;28;20476;-72
2023/01/20 02:52:14;;;;;;;42.25;21.88;;;0.90;99.90;;;;;;5045393;28;20033;-74
2023/01/20 02:54:50;;;;;;;39.53;21.70;;;0.90;99.90;;;;;;5043861;28;20036;-74
2023/01/20 02:57:25;;;;;;;41.80;21.60;;;0.90;99.90;;;;;;5046754;28;20276;-74
2023/01/20 02:59:54;;;;;;;53.05;24.25;;;0.90;99.90;;;;;;5047638;28;20463;-75
2023/01/20 03:02:24;;;;;;;51.55;23.02;;;0.90;99.90;;;;;;5061285;28;20758;-73
2023/01/20 03:05:21;;;;;;;46.25;22.17;;;0.90;99.90;;;;;;5029510;28;20037;-73
2023/01/20 03:07:49;;;;;;;48.80;24.10;;;0.90;99.90;;;;;;5052232;28;20108;-73
2023/01/20 03:10:18;;;;;;;51.95;25.20;;;0.90;99.90;;;;;;5042032;28;20516;-73
2023/01/20 03:12:57;;;;;;;52.78;24.58;;;0.90;99.90;;;;;;5044939;28;20029;-73
2023/01/20 03:15:28;;;;;;;49.92;25.90;;;0.90;99.90;;;;;;5046289;28;20037;-73
2023/01/20 03:17:54;;;;;;;57.78;25.00;;;0.90;99.90;;;;;;5044702;28;20405;-72
2023/01/20 03:20:20;;;;;;;55.05;25.63;;;0.90;99.90;;;;;;5062647;28;20029;-74
2023/01/20 03:22:45;;;;;;;55.08;25.90;;;0.90;99.90;;;;;;5044119;28;20029;-73
2023/01/20 03:25:13;;;;;;;52.17;25.30;;;0.90;99.90;;;;;;5047547;28;20600;-73
2023/01/20 03:27:39;;;;;;;49.75;24.80;;;0.90;99.90;;;;;;5043814;28;20037;-73
2023/01/20 03:30:12;;;;;;;48.75;24.42;;;0.90;99.90;;;;;;5044310;28;20463;-72
2023/01/20 03:32:38;;;;;;;53.42;25.23;;;0.80;99.90;;;;;;5045286;28;20044;-73
2023/01/20 03:35:04;;;;;;;60.63;26.65;;;0.80;99.90;;;;;;5029649;28;20119;-75
2023/01/20 03:37:30;;;;;;;55.50;26.40;;;0.80;99.90;;;;;;5043186;28;20215;-73
2023/01/20 03:39:56;;;;;;;48.58;25.17;;;0.90;99.90;;;;;;5046960;28;20216;-73
2023/01/20 03:42:33;;;;;;;58.03;27.52;;;0.80;99.90;;;;;;5043881;28;20036;-72
2023/01/20 03:45:01;;;;;;;54.65;26.60;;;0.80;99.90;;;;;;5045043;28;20147;-73
2023/01/20 03:47:39;;;;;;;53.05;25.77;;;0.80;99.90;;;;;;5043570;28;20409;-73
2023/01/20 03:50:04;;;;;;;52.95;26.83;;;0.80;99.90;;;;;;5045393;28;20036;-75
2023/01/20 03:52:39;;;;;;;59.72;27.52;;;0.90;99.90;;;;;;5052213;28;20025;-74
2023/01/20 03:55:13;;;;;;;52.88;27.08;;;0.90;99.90;;;;;;5038650;28;20029;-74
2023/01/20 03:57:49;;;;;;;54.67;26.15;;;0.90;99.90;;;;;;5048026;28;20032;-72
2023/01/20 04:00:18;;;;;;;53.03;25.38;;;0.90;99.90;;;;;;5047006;28;20039;-73
2023/01/20 04:02:44;;;;;;;60.78;28.42;;;0.90;99.90;;;;;;5079602;28;20029;-73
2023/01/20 04:05:11;;;;;;;55.92;27.38;;;0.90;99.90;;;;;;5049087;28;20036;-73
2023/01/20 04:07:40;;;;;;;61.53;27.05;;;0.90;99.90;;;;;;5047181;28;20040;-74
2023/01/20 04:10:11;;;;;;;51.78;25.42;;;0.90;99.90;;;;;;5049784;28;20404;-74
2023/01/20 04:12:37;;;;;;;62.38;27.98;;;0.90;99.90;;;;;;5048639;28;20098;-73
2023/01/20 04:15:05;;;;;;;57.05;26.80;;;0.90;99.90;;;;;;5049747;28;20029;-75
2023/01/20 04:17:31;;;;;;;56.33;25.80;;;0.90;99.90;;;;;;5048826;28;20029;-73
2023/01/20 04:20:03;;;;;;;58.08;27.05;;;1.00;99.90;;;;;;5050665;28;20028;-72
2023/01/20 04:22:46;;;;;;;60.63;27.13;;;1.00;99.90;;;;;;5047810;28;20047;-73
2023/01/20 04:25:30;;;;;;;51.28;25.20;;;1.00;99.90;;;;;;5049379;28;20459;-72
2023/01/20 04:27:56;;;;;;;54.47;24.13;;;0.90;99.90;;;;;;5045649;28;20167;-73
2023/01/20 04:30:22;;;;;;;51.72;25.02;;;0.90;99.90;;;;;;5046972;28;20124;-73
2023/01/20 04:32:47;;;;;;;52.05;25.08;;;0.90;99.90;;;;;;5047894;28;20040;-73
2023/01/20 04:35:15;;;;;;;55.55;24.48;;;1.00;99.90;;;;;;5048935;28;20048;-74
2023/01/20 04:37:41;;;;;;;52.47;23.63;;;1.00;99.90;;;;;;5048889;28;20032;-76
2023/01/20 04:40:08;;;;;;;52.58;24.52;;;1.00;99.90;;;;;;5047531;28;20048;-79
2023/01/20 04:42:34;;;;;;;46.60;23.10;;;1.00;99.90;;;;;;5044583;28;20440;-73
2023/01/20 04:45:00;;;;;;;50.10;23.15;;;1.00;99.90;;;;;;5047366;28;20110;-73
2023/01/20 04:47:30;;;;;;;48.10;22.80;;;1.00;99.90;;;;;;5048008;28;20112;-75
2023/01/20 04:49:55;;;;;;;49.88;23.48;;;1.00;99.90;;;;;;5045482;28;20048;-75
2023/01/20 04:52:21;;;;;;;47.03;21.70;;;1.00;99.90;;;;;;5047556;28;20025;-73
2023/01/20 04:54:47;;;;;;;49.38;22.50;;;0.90;99.90;;;;;;5047164;28;20036;-73
2023/01/20 04:57:13;;;;;;;49.50;23.05;;;0.90;99.90;;;;;;5050157;28;20033;-72
2023/01/20 04:59:38;;;;;;;47.05;20.63;;;0.90;99.90;;;;;;5047414;28;20044;-75
2023/01/20 05:02:04;;;;;;;51.17;22.92;;;1.00;99.90;;;;;;5047859;28;20037;-74
2023/01/20 05:04:30;;;;;;;48.10;22.55;;;1.00;99.90;;;;;;5048409;28;20029;-73
2023/01/20 05:06:55;;;;;;;47.42;21.17;;;1.00;99.90;;;;;;5048235;28;20047;-73
2023/01/20 05:09:21;;;;;;;50.28;23.42;;;1.00;99.90;;;;;;5044193;28;20044;-73
2023/01/20 05:11:47;;;;;;;50.25;21.80;;;0.90;99.90;;;;;;5079899;28;20029;-73
2023/01/20 05:14:13;;;;;;;49.30;21.75;;;0.90;99.90;;;;;;5043766;28;20118;-73
2023/01/20 05:16:39;;;;;;;49.33;20.65;;;1.00;99.90;;;;;;5038503;28;20031;-73
2023/01/20 05:19:04;;;;;;;51.47;22.00;;;1.00;99.90;;;;;;5072411;28;20029;-73
2023/01/20 05:21:30;;;;;;;47.35;20.25;;;1.00;99.90;;;;;;5039267;28;20047;-73
2023/01/20 05:23:56;;;;;;;53.85;21.33;;;1.00;99.90;;;;;;5044075;28;20129;-74
2023/01/20 05:26:23;;;;;;;47.38;21.17;;;1.00;99.90;;;;;;5038182;28;20075;-73
2023/01/20 05:28:49;;;;;;;49.30;21.60;;;1.00;99.90;;;;;;5038142;28;20031;-73
2023/01/20 05:31:15;;;;;;;39.33;19.42;;;1.00;99.90;;;;;;5040694;28;20033;-73
2023/01/20 05:33:40;;;;;;;48.63;20.00;;;1.00;99.90;;;;;;5047996;28;20151;-73
2023/01/20 05:36:07;;;;;;;47.40;20.05;;;0.90;99.90;;;;;;5044575;28;20084;-73
2023/01/20 05:38:33;;;;;;;41.28;18.65;;;0.90;99.90;;;;;;5047397;28;20025;-73
2023/01/20 05:41:03;;;;;;;44.45;20.40;;;1.00;99.90;;;;;;5044365;28;20669;-75
2023/01/20 05:43:29;;;;;;;53.53;20.63;;;0.90;99.90;;;;;;5045087;28;20060;-73
2023/01/20 05:45:55;;;;;;;51.95;19.58;;;0.90;99.90;;;;;;5043397;28;20028;-72
2023/01/20 05:48:21;;;;;;;44.20;19.48;;;1.00;99.90;;;;;;5043080;28;20107;-74
2023/01/20 05:50:47;;;;;;;47.67;19.60;;;1.00;99.90;;;;;;5044244;28;20568;-73
2023/01/20 05:53:13;;;;;;;42.72;19.00;;;1.00;99.90;;;;;;5040174;28;20166;-73
2023/01/20 05:55:39;;;;;;;40.83;18.02;;;1.00;99.90;;;;;;5041327;28;20070;-73
2023/01/20 05:58:05;;;;;;;44.67;19.33;;;1.00;99.90;;;;;;5042301;28;20435;-73
2023/01/20 06:00:31;;;;;;;38.85;17.80;;;1.00;99.90;;;;;;5041916;28;20075;-72
2023/01/20 06:02:57;;;;;;;42.70;18.83;;;1.00;99.90;;;;;;5041255;28;20526;-73
2023/01/20 06:05:23;;;;;;;44.67;19.58;;;1.00;99.90;;;;;;5040998;28;20105;-74
2023/01/20 06:07:49;;;;;;;39.88;16.98;;;1.00;99.90;;;;;;5044277;28;20028;-73
2023/01/20 06:10:15;;;;;;;49.20;20.20;;;1.00;99.90;;;;;;5040488;28;20313;-73
2023/01/20 06:12:42;;;;;;;42.17;17.95;;;1.10;99.90;;;;;;5039302;28;20521;-73
2023/01/20 06:15:08;;;;;;;45.28;17.63;;;1.10;99.90;;;;;;5037766;28;20111;-72
2023/01/20 06:17:34;;;;;;;45.55;19.50;;;1.10;99.90;;;;;;5035966;28;20068;-74
2023/01/20 06:20:00;;;;;;;41.60;18.58;;;1.10;99.90;;;;;;5040463;28;20048;-73
2023/01/20 06:22:26;;;;;;;47.45;20.10;;;1.10;99.90;;;;;;5040932;28;20031;-73
2023/01/20 06:24:52;;;;;;;43.75;18.35;;;1.10;99.90;;;;;;5039824;28;20041;-73
2023/01/20 06:27:19;;;;;;;40.60;18.45;;;1.10;99.90;;;;;;5043255;28;20682;-72
2023/01/20 06:29:45;;;;;;;40.50;17.40;;;1.20;99.90;;;;;;5042810;28;20060;-73
2023/01/20 06:32:10;;;;;;;44.75;17.75;;;1.20;99.90;;;;;;5037999;28;20642;-73
2023/01/20 06:34:36;;;;;;;40.92;18.38;;;1.10;99.90;;;;;;5046379;28;20051;-77
2023/01/20 06:37:02;;;;;;;44.22;18.95;;;1.20;99.90;;;;;;5043808;28;20078;-72
2023/01/20 06:39:28;;;;;;;43.97;18.45;;;1.10;99.90;;;;;;5043267;28;20082;-72
2023/01/20 06:41:57;;;;;;;42.05;18.80;;;1.20;99.90;;;;;;5044805;28;20412;-73
2023/01/20 06:44:24;;;;;;;41.13;17.92;;;1.20;99.90;;;;;;5078403;28;20451;-72
2023/01/20 06:46:50;;;;;;;49.42;20.42;;;1.20;99.90;;;;;;5044039;28;20583;-73
2023/01/20 06:49:16;;;;;;;42.25;18.23;;;1.10;99.90;;;;;;5042109;28;20029;-72
2023/01/20 06:51:42;;;;;;;41.65;18.13;;;1.10;99.90;;;;;;5036993;28;20028;-74
2023/01/20 06:54:08;;;;;;;49.13;19.27;;;1.10;99.90;;;;;;5038729;28;20045;-73
2023/01/20 06:56:34;;;;;;;47.30;18.50;;;1.10;99.90;;;;;;5038017;28;20052;-72
2023/01/20 06:58:59;;;;;;;44.80;19.02;;;2.20;99.90;;;;;;5038681;28;20036;-72
2023/01/20 07:01:28;;;;;;;42.53;18.55;;;1.80;99.90;;;;;;5040811;28;20354;-73
2023/01/20 07:03:54;;;;;;;47.20;20.08;;;1.50;99.90;;;;;;5045196;28;20033;-73
2023/01/20 07:06:39;;;;;;;47.35;19.73;;;1.30;99.90;;;;;;5026349;28;20033;-72
2023/01/20 07:09:08;;;;;;;44.85;18.25;;;1.20;99.90;;;;;;5045030;28;20040;-71
2023/01/20 07:11:34;;;;;;;42.33;18.67;;;1.20;99.90;;;;;;5045002;28;20025;-71
2023/01/20 07:14:01;;;;;;;39.90;18.38;;;1.10;99.90;;;;;;5046184;28;20033;-75
2023/01/20 07:16:26;;;;;;;40.65;19.35;;;1.20;99.90;;;;;;5053881;28;20021;-74
2023/01/20 07:18:52;;;;;;;46.65;18.67;;;1.20;99.90;;;;;;5044200;28;20095;-72
2023/01/20 07:21:19;;;;;;;43.60;19.48;;;1.10;99.90;;;;;;5039645;28;20496;-72
2023/01/20 07:23:45;;;;;;;45.00;19.25;;;1.10;99.90;;;;;;5044551;28;20057;-72
2023/01/20 07:26:17;;;;;;;44.05;18.23;;;1.10;99.90;;;;;;5046134;28;20064;-72
2023/01/20 07:28:42;;;;;;;42.13;18.70;;;1.10;99.90;;;;;;5046202;28;20033;-71
2023/01/20 07:31:11;;;;;;;42.38;18.38;;;1.10;99.90;;;;;;5046194;28;20106;-73
2023/01/20 07:33:37;;;;;;;42.58;17.60;;;1.10;99.90;;;;;;5065907;28;20404;-73
2023/01/20 07:36:03;;;;;;;40.80;17.42;;;1.10;99.90;;;;;;5045990;28;20070;-73
2023/01/20 07:38:30;;;;;;;41.90;18.33;;;1.10;99.90;;;;;;5047531;28;20629;-72
2023/01/20 07:40:59;;;;;;;43.38;17.75;;;1.20;99.90;;;;;;5051064;28;20025;-72
2023/01/20 07:43:25;;;;;;;40.13;18.08;;;1.10;99.90;;;;;;5046336;28;20507;-72
2023/01/20 07:45:57;;;;;;;42.17;17.25;;;1.10;99.90;;;;;;5078233;28;20036;-76
2023/01/20 07:48:24;;;;;;;41.72;16.95;;;1.10;99.90;;;;;;5043595;28;20111;-73
2023/01/20 07:51:11;;;;;;;38.42;18.42;;;1.20;99.90;;;;;;5045299;28;20036;-73
2023/01/20 07:53:45;;;;;;;38.92;15.85;;;1.20;99.90;;;;;;5047412;28;20036;-74
2023/01/20 07:56:14;;;;;;;44.80;18.15;;;1.20;99.90;;;;;;5065171;28;20400;-73
2023/01/20 07:58:41;;;;;;;39.08;17.45;;;1.20;99.90;;;;;;5048742;28;20092;-72
2023/01/20 08:01:09;;;;;;;41.97;18.83;;;1.20;99.90;;;;;;5046028;28;20021;-72
2023/01/20 08:03:35;;;;;;;41.08;18.25;;;1.20;99.90;;;;;;5046084;28;20190;-75
2023/01/20 08:06:05;;;;;;;41.42;17.83;;;1.20;99.90;;;;;;5050317;28;20461;-73
2023/01/20 08:08:31;;;;;;;35.70;16.00;;;1.20;99.90;;;;;;5047187;28;20021;-73
2023/01/20 08:10:58;;;;;;;37.25;17.13;;;1.20;99.90;;;;;;5047027;28;20276;-74
2023/01/20 08:13:24;;;;;;;38.88;16.52;;;1.20;99.90;;;;;;5032361;28;20396;-73
2023/01/20 08:15:49;;;;;;;35.90;16.80;;;1.20;99.90;;;;;;5047533;28;20108;-73
2023/01/20 08:18:15;;;;;;;38.17;15.82;;;1.20;99.90;;;;;;5046389;28;20136;-73
2023/01/20 08:20:41;;;;;;;36.78;15.05;;;1.20;99.90;;;;;;5046845;28;20057;-74
2023/01/20 08:23:07;;;;;;;36.25;17.65;;;1.20;99.90;;;;;;5047043;28;20115;-73
2023/01/20 08:25:33;;;;;;;36.42;15.60;;;1.30;99.90;;;;;;5045933;28;20481;-75
2023/01/20 08:27:59;;;;;;;32.95;15.90;;;1.20;99.90;;;;;;5047063;28;20036;-75
2023/01/20 08:30:24;;;;;;;30.15;14.15;;;1.30;99.90;;;;;;5046830;28;20492;-73
2023/01/20 08:32:50;;;;;;;31.98;14.02;;;1.30;99.90;;;;;;5042707;28;20056;-73
2023/01/20 08:35:16;;;;;;;35.00;15.50;;;1.40;99.90;;;;;;5048206;28;20021;-73
2023/01/20 08:37:42;;;;;;;34.92;15.50;;;1.40;99.90;;;;;;5046942;28;20505;-73
2023/01/20 08:40:09;;;;;;;32.85;14.70;;;1.50;99.90;;;;;;5042272;28;20575;-73
2023/01/20 08:42:38;;;;;;;31.55;14.68;;;1.50;99.90;;;;;;5029423;28;20522;-75
2023/01/20 08:45:06;;;;;;;33.55;14.50;;;1.40;99.90;;;;;;5048449;28;20146;-74
2023/01/20 08:47:43;;;;;;;33.45;15.45;;;1.40;99.90;;;;;;5049231;28;20524;-73
2023/01/20 08:50:09;;;;;;;34.03;13.98;;;1.50;99.90;;;;;;5044694;28;20031;-74
2023/01/20 08:52:35;;;;;;;31.63;14.02;;;1.50;99.90;;;;;;5048297;28;20431;-73
2023/01/20 08:55:01;;;;;;;36.30;15.43;;;1.50;99.90;;;;;;5084241;28;20028;-75
2023/01/20 08:57:27;;;;;;;32.00;14.27;;;1.60;99.90;;;;;;5047667;28;20021;-73
2023/01/20 08:59:54;;;;;;;29.73;13.85;;;1.60;99.90;;;;;;5028356;28;20037;-74
2023/01/20 09:02:22;;;;;;;32.05;14.15;;;1.60;99.90;;;;;;5048517;28;20033;-74
2023/01/20 09:04:48;;;;;;;32.00;13.48;;;1.60;99.90;;;;;;5047868;28;20028;-73
2023/01/20 09:07:15;;;;;;;33.30;14.98;;;1.60;99.90;;;;;;5048371;28;20025;-73
2023/01/20 09:09:42;;;;;;;32.80;14.45;;;1.60;99.90;;;;;;5028584;28;20552;-74
2023/01/20 09:12:08;;;;;;;33.13;14.75;;;1.60;99.90;;;;;;5050963;28;20445;-73
2023/01/20 09:14:33;;;;;;;31.90;15.93;;;1.70;99.90;;;;;;5038027;28;20033;-74
2023/01/20 09:17:01;;;;;;;30.25;14.57;;;1.70;99.90;;;;;;5046550;28;20036;-73
2023/01/20 09:19:28;;;;;;;34.28;13.93;;;1.70;99.90;;;;;;5045064;28;20037;-74
2023/01/20 09:21:54;;;;;;;32.55;14.50;;;1.70;99.90;;;;;;5045737;28;20587;-76
2023/01/20 09:24:23;;;;;;;35.80;15.02;;;1.70;99.90;;;;;;5058967;28;20037;-75
2023/01/20 09:26:49;;;;;;;36.55;15.40;;;1.60;99.90;;;;;;5045823;28;20036;-77
2023/01/20 09:29:17;;;;;;;32.47;14.32;;;1.70;99.90;;;;;;5047832;28;20037;-72
2023/01/20 09:31:44;;;;;;;30.85;14.48;;;1.70;99.90;;;;;;5048681;28;20040;-73
2023/01/20 09:34:17;;;;;;;33.35;15.02;;;1.70;99.90;;;;;;5047944;28;21008;-73
2023/01/20 09:36:43;;;;;;;34.88;13.93;;;1.70;99.90;;;;;;5046231;28;20036;-79
2023/01/20 09:44:55;;;;;;;32.08;14.20;;;1.70;99.90;;;;;;5066480;28;20493;-77
2023/01/20 09:47:28;;;;;;;30.65;13.73;;;1.80;99.90;;;;;;5058527;28;20108;-73
2023/01/20 09:53:16;;;;;;;31.60;14.80;;;1.90;99.90;;;;;;5042575;28;20108;-74
2023/01/20 09:56:15;;;;;;;34.13;14.80;;;1.90;99.90;;;;;;5016551;28;20044;-72
2023/01/20 09:58:40;;;;;;;29.70;14.07;;;2.10;99.90;;;;;;5042266;28;20067;-73
2023/01/20 10:01:29;;;;;;;33.88;15.68;;;2.10;99.90;;;;;;5047294;28;20056;-72
2023/01/20 10:04:00;;;;;;;34.88;15.00;;;2.20;99.90;;;;;;5041441;28;20063;-72
2023/01/20 10:06:40;;;;;;;30.15;13.70;;;2.20;99.90;;;;;;5046898;28;20931;-73
2023/01/20 10:09:36;;;;;;;33.75;15.15;;;2.20;99.90;;;;;;5048231;28;20065;-73
2023/01/20 10:12:32;;;;;;;25.00;12.68;;;2.20;99.90;;;;;;5030971;28;20048;-72
2023/01/20 10:15:11;;;;;;;31.77;13.32;;;2.20;99.90;;;;;;5048858;28;20519;-72
2023/01/20 10:18:05;;;;;;;27.00;12.50;;;2.20;99.90;;;;;;5045212;28;20029;-72
2023/01/20 10:21:21;;;;;;;30.73;13.73;;;2.30;99.90;;;;;;5047108;28;20924;-72
2023/01/20 10:23:56;;;;;;;34.08;13.60;;;2.30;99.90;;;;;;4984409;28;20041;-73
2023/01/20 10:26:30;;;;;;;28.70;12.65;;;2.30;99.90;;;;;;4986924;28;20417;-72
2023/01/20 10:29:02;;;;;;;26.23;12.85;;;2.30;99.90;;;;;;5025539;28;20043;-73
2023/01/20 10:31:36;;;;;;;30.65;12.25;;;2.40;99.90;;;;;;5041356;28;20848;-73
2023/01/20 10:34:11;;;;;;;29.00;11.40;;;2.40;99.90;;;;;;5044593;28;20083;-74
2023/01/20 10:36:40;;;;;;;29.73;12.68;;;2.50;99.90;;;;;;5044708;28;20025;-73
2023/01/20 10:39:29;;;;;;;26.30;11.65;;;2.40;99.90;;;;;;5056437;28;20563;-74
2023/01/20 10:42:04;;;;;;;25.55;11.60;;;2.50;99.90;;;;;;5046164;28;20095;-72
2023/01/20 10:44:33;;;;;;;29.20;13.88;;;2.50;99.90;;;;;;5047334;28;20048;-72
2023/01/20 10:47:46;;;;;;;26.60;12.18;;;2.40;99.90;;;;;;5045235;28;20048;-73
2023/01/20 10:50:55;;;;;;;28.13;13.27;;;2.40;99.90;;;;;;5041877;28;20602;-73
2023/01/20 10:53:24;;;;;;;25.92;12.27;;;2.40;99.90;;;;;;5028855;28;20124;-74
2023/01/20 10:55:53;;;;;;;26.13;12.68;;;2.50;99.90;;;;;;5046227;28;20021;-74
2023/01/20 10:58:24;;;;;;;28.38;12.25;;;2.50;99.90;;;;;;5046750;28;20056;-75
2023/01/20 11:00:51;;;;;;;29.52;12.75;;;2.50;99.90;;;;;;5059147;28;20044;-74
2023/01/20 11:03:19;;;;;;;26.88;11.48;;;2.50;99.90;;;;;;5043449;28;20039;-74
2023/01/20 11:05:47;;;;;;;26.42;11.75;;;2.40;99.90;;;;;;5039953;28;20032;-74
2023/01/20 11:08:22;;;;;;;27.63;12.48;;;2.40;99.90;;;;;;5048056;28;20033;-73
2023/01/20 11:10:54;;;;;;;24.70;10.93;;;2.50;99.90;;;;;;5045612;28;20556;-74
2023/01/20 11:13:20;;;;;;;28.75;12.10;;;2.50;99.90;;;;;;5045415;28;20017;-73
2023/01/20 11:15:48;;;;;;;25.58;11.70;;;2.60;99.90;;;;;;5030064;28;20526;-73
2023/01/20 11:18:14;;;;;;;26.02;12.18;;;2.60;99.90;;;;;;5061522;28;20079;-71
2023/01/20 11:20:54;;;;;;;25.70;11.85;;;2.70;99.90;;;;;;5049523;28;20029;-73
2023/01/20 11:23:52;;;;;;;25.05;12.05;;;2.80;99.90;;;;;;5050201;28;20128;-73
2023/01/20 11:26:27;;;;;;;26.52;12.15;;;2.90;99.90;;;;;;5045802;28;20025;-72
2023/01/20 11:28:54;;;;;;;26.65;11.73;;;3.00;99.90;;;;;;5049280;28;20039;-72
2023/01/20 11:31:32;;;;;;;25.25;12.07;;;3.10;99.90;;;;;;5040326;28;20033;-72
2023/01/20 11:34:00;;;;;;;27.33;11.90;;;3.20;99.90;;;;;;5033980;28;20753;-73
2023/01/20 11:36:27;;;;;;;18.98;9.95;;;3.10;99.90;;;;;;5047066;28;20064;-74
2023/01/20 11:38:55;;;;;;;23.13;11.05;;;3.00;99.90;;;;;;5066052;28;20033;-72
2023/01/20 11:41:29;;;;;;;23.40;10.30;;;2.90;99.90;;;;;;5027956;28;20487;-73
2023/01/20 11:43:57;;;;;;;26.98;11.35;;;2.90;99.90;;;;;;5028686;28;20411;-73
2023/01/20 11:46:29;;;;;;;20.95;9.95;;;2.80;99.90;;;;;;5027937;28;21323;-73
2023/01/20 11:49:15;;;;;;;24.63;10.93;;;2.90;99.90;;;;;;5032188;28;20037;-73
2023/01/20 11:51:55;;;;;;;20.38;10.45;;;2.80;99.90;;;;;;5062046;28;20033;-74
2023/01/20 11:54:23;;;;;;;19.60;9.57;;;2.80;99.90;;;;;;5035409;28;20083;-73
2023/01/20 11:56:58;;;;;;;22.77;11.05;;;2.90;99.90;;;;;;5028189;28;20029;-73
2023/01/20 11:59:34;;;;;;;24.42;11.20;;;3.00;99.90;;;;;;5025321;28;20041;-73
2023/01/20 12:02:19;;;;;;;25.77;10.45;;;3.00;99.90;;;;;;5007976;28;20169;-73
2023/01/20 12:05:08;;;;;;;21.67;11.02;;;3.10;99.90;;;;;;5028195;28;20033;-73
2023/01/20 12:07:55;;;;;;;20.75;10.15;;;3.30;99.90;;;;;;5028969;28;20114;-74
2023/01/20 12:10:23;;;;;;;25.45;12.45;;;3.30;99.90;;;;;;5030567;28;20041;-74
2023/01/20 12:12:58;;;;;;;27.35;13.45;;;3.30;99.90;;;;;;5041768;28;20386;-75
2023/01/20 12:15:30;;;;;;;26.92;12.02;;;3.30;99.90;;;;;;5009832;28;20025;-76
2023/01/20 12:18:18;;;;;;;24.08;11.88;;;3.20;99.90;;;;;;5028112;28;20136;-72
2023/01/20 12:20:59;;;;;;;24.02;11.10;;;3.20;99.90;;;;;;5050486;28;20377;-73
2023/01/20 12:23:54;;;;;;;21.73;10.73;;;3.30;99.90;;;;;;5051811;28;20096;-74
2023/01/20 12:26:22;;;;;;;22.05;11.00;;;3.50;99.90;;;;;;5049663;28;20096;-73
2023/01/20 12:29:17;;;;;;;19.92;10.55;;;3.50;99.90;;;;;;5051227;28;20112;-74
2023/01/20 12:31:47;;;;;;;25.35;12.15;;;3.50;99.90;;;;;;5036933;28;20041;-73
2023/01/20 12:34:29;;;;;;;24.80;11.10;;;3.50;99.90;;;;;;5047135;28;20033;-73
2023/01/20 12:37:16;;;;;;;24.98;11.65;;;3.40;99.90;;;;;;5048973;28;20038;-73
2023/01/20 12:39:56;;;;;;;23.00;11.13;;;3.30;99.90;;;;;;5030137;28;20033;-73
2023/01/20 12:42:58;;;;;;;23.52;11.60;;;3.30;99.90;;;;;;5049729;28;20432;-72
2023/01/20 12:45:51;;;;;;;27.48;11.90;;;3.20;99.90;;;;;;5032596;28;20040;-72
2023/01/20 12:48:23;;;;;;;21.88;11.23;;;3.20;99.90;;;;;;5047098;28;20029;-74
2023/01/20 12:51:06;;;;;;;21.95;11.02;;;3.10;99.90;;;;;;5050688;28;20033;-73
2023/01/20 12:54:23;;;;;;;23.73;11.70;;;3.10;99.90;;;;;;5048281;28;20071;-74
2023/01/20 12:56:49;;;;;;;23.40;11.32;;;3.10;99.90;;;;;;5033182;28;20047;-73
2023/01/20 12:59:35;;;;;;;21.10;10.43;;;3.20;99.90;;;;;;5047052;28;20020;-73
2023/01/20 13:02:15;;;;;;;23.95;11.57;;;3.30;99.90;;;;;;5048837;28;20084;-73
2023/01/20 13:04:55;;;;;;;21.70;10.85;;;3.30;99.90;;;;;;5049841;28;20033;-72
2023/01/20 13:08:01;;;;;;;19.40;10.38;;;3.40;99.90;;;;;;5047389;28;20500;-73